Time;durP1;ratioP1;P1;durP2;ratioP2;P2;SDS_P1;SDS_P2;PMS_P1;PMS_P2;Temp;Humidity;BMP_temperature;BMP_pressure;BME280_temperature;BME280_humidity;BME280_pressure;Samples;Min_cycle;Max_cycle;Signal;HPM_P1;HPM_P2
2022/11/29 00:01:29;;;;;;;4.77;4.30;;;17.10;64.50;18.20;100539.00;;;;5050781;28;20176;-45
2022/11/29 00:03:55;;;;;;;4.93;4.50;;;17.10;64.50;18.20;100467.00;;;;5050449;28;20225;-45
2022/11/29 00:06:26;;;;;;;5.60;4.80;;;17.00;64.40;18.20;100541.00;;;;5030956;28;20692;-44
2022/11/29 00:08:52;;;;;;;5.43;4.93;;;17.00;64.40;18.20;100543.00;;;;5050886;28;20155;-45
2022/11/29 00:14:09;;;;;;;6.43;4.83;;;17.00;64.40;18.10;100547.00;;;;5050765;28;20245;-45
2022/11/29 00:16:35;;;;;;;4.90;4.40;;;17.00;64.50;18.10;100544.00;;;;5050346;28;20194;-46
2022/11/29 00:19:01;;;;;;;4.93;4.53;;;17.00;64.50;18.10;100549.00;;;;5032359;28;20166;-45
2022/11/29 00:21:27;;;;;;;4.87;4.37;;;16.90;64.30;18.10;100552.00;;;;5031226;28;20173;-45
2022/11/29 00:23:54;;;;;;;4.97;4.20;;;16.90;64.40;18.10;100553.00;;;;5032967;28;20497;-45
2022/11/29 00:26:20;;;;;;;5.63;4.60;;;16.90;64.50;18.10;100561.00;;;;5050078;28;20273;-45
2022/11/29 00:28:46;;;;;;;4.83;4.43;;;16.90;64.50;18.10;100552.00;;;;5050426;28;20662;-45
2022/11/29 00:31:31;;;;;;;5.10;4.60;;;16.90;64.50;17.80;100546.00;;;;5049922;28;20195;-46
2022/11/29 00:33:58;;;;;;;4.93;4.50;;;16.90;64.60;18.00;100554.00;;;;5033385;28;20169;-46
2022/11/29 00:36:24;;;;;;;4.80;4.40;;;16.80;64.50;18.00;100560.00;;;;5050043;28;20738;-44
2022/11/29 00:38:50;;;;;;;4.67;4.27;;;16.80;64.50;18.00;100555.00;;;;5049836;28;20200;-44
2022/11/29 00:41:15;;;;;;;4.70;4.30;;;16.80;64.50;18.00;100549.00;;;;5049571;28;20172;-45
2022/11/29 00:43:41;;;;;;;5.60;4.43;;;16.80;64.70;17.90;100557.00;;;;5049972;28;20254;-45
2022/11/29 00:46:07;;;;;;;4.57;4.17;;;16.80;64.60;17.90;100554.00;;;;5049852;28;20606;-45
2022/11/29 00:48:33;;;;;;;4.93;4.27;;;16.80;64.70;17.90;100558.00;;;;5049792;28;20199;-44
2022/11/29 00:50:58;;;;;;;4.80;4.40;;;16.70;64.60;17.90;100562.00;;;;5049893;28;20199;-44
2022/11/29 00:53:24;;;;;;;5.20;4.60;;;16.70;64.60;17.90;100559.00;;;;5049394;28;20210;-45
2022/11/29 00:55:50;;;;;;;5.60;4.80;;;16.70;64.60;17.90;100565.00;;;;5049434;28;20186;-45
2022/11/29 00:58:17;;;;;;;5.63;4.70;;;16.70;64.50;17.90;100558.00;;;;5049645;28;20236;-44
2022/11/29 01:00:42;;;;;;;4.80;4.40;;;16.70;64.60;17.80;100562.00;;;;5049926;28;20177;-45
2022/11/29 01:03:08;;;;;;;4.67;4.27;;;16.70;64.60;17.80;100567.00;;;;5049254;28;20209;-46
2022/11/29 01:05:34;;;;;;;5.30;4.80;;;16.70;64.60;17.80;100568.00;;;;5049731;28;20540;-45
2022/11/29 01:08:00;;;;;;;4.93;4.53;;;16.70;64.60;17.80;100562.00;;;;5031210;28;20176;-47
2022/11/29 01:10:25;;;;;;;5.20;4.80;;;16.60;64.60;17.80;100553.00;;;;5049418;28;20297;-44
2022/11/29 01:12:51;;;;;;;5.27;4.77;;;16.60;64.60;17.80;100558.00;;;;5049119;28;20427;-44
2022/11/29 01:15:17;;;;;;;5.30;4.80;;;16.70;64.80;17.70;100559.00;;;;5049394;28;20225;-45
2022/11/29 01:17:43;;;;;;;4.70;4.30;;;16.60;64.60;17.70;100553.00;;;;5031243;28;20341;-45
2022/11/29 01:20:10;;;;;;;4.83;4.40;;;16.60;64.70;17.70;100554.00;;;;5049195;28;20564;-46
2022/11/29 01:22:36;;;;;;;4.90;4.40;;;16.60;64.70;17.70;100555.00;;;;5031385;28;20202;-44
2022/11/29 01:25:03;;;;;;;5.17;4.67;;;16.60;64.70;17.70;100563.00;;;;5048786;28;20182;-45
2022/11/29 01:27:29;;;;;;;5.67;4.77;;;16.60;64.70;17.70;100553.00;;;;5031512;28;20203;-45
2022/11/29 01:29:54;;;;;;;5.10;4.60;;;16.60;64.70;17.70;100556.00;;;;5049215;28;20718;-44
2022/11/29 01:32:20;;;;;;;5.30;4.80;;;16.60;64.90;17.70;100558.00;;;;5049390;28;20168;-46
2022/11/29 01:34:46;;;;;;;5.00;4.50;;;16.60;64.90;17.70;100565.00;;;;5049150;28;20214;-46
2022/11/29 01:37:12;;;;;;;5.10;4.60;;;16.50;64.70;17.70;100534.00;;;;5048862;28;20223;-45
2022/11/29 01:39:37;;;;;;;4.90;4.50;;;16.50;64.80;17.80;100552.00;;;;5048785;28;20681;-44
2022/11/29 01:42:03;;;;;;;4.80;4.40;;;16.50;64.70;17.70;100562.00;;;;5031192;28;20268;-45
2022/11/29 01:44:29;;;;;;;5.30;4.80;;;16.50;64.80;17.70;100483.00;;;;5031017;28;20175;-45
2022/11/29 01:46:55;;;;;;;4.80;4.40;;;16.50;64.90;17.70;100573.00;;;;5048419;28;20535;-45
2022/11/29 01:49:27;;;;;;;5.10;4.50;;;16.50;64.80;17.70;100571.00;;;;5048752;28;20184;-45
2022/11/29 01:52:01;;;;;;;5.10;4.63;;;16.50;64.80;17.70;100576.00;;;;5030649;28;20285;-45
2022/11/29 01:54:28;;;;;;;5.07;4.67;;;16.50;64.70;17.70;100574.00;;;;5031083;28;20179;-45
2022/11/29 01:56:54;;;;;;;4.60;4.20;;;16.50;64.80;17.70;100579.00;;;;5048489;28;20661;-44
2022/11/29 01:59:22;;;;;;;4.53;4.13;;;16.50;64.80;17.70;100586.00;;;;5030614;28;20252;-45
2022/11/29 02:01:48;;;;;;;5.27;4.77;;;16.50;64.80;17.70;100588.00;;;;5030710;28;20176;-45
2022/11/29 02:04:14;;;;;;;6.10;4.30;;;16.50;64.80;17.60;100583.00;;;;5030535;28;20174;-45
2022/11/29 02:06:39;;;;;;;4.90;4.43;;;16.40;64.70;17.60;100593.00;;;;5030425;28;20190;-45
2022/11/29 02:09:18;;;;;;;5.10;4.70;;;16.40;64.70;17.60;100586.00;;;;5032712;28;20232;-45
2022/11/29 02:12:06;;;;;;;5.40;4.90;;;16.40;64.70;17.60;100578.00;;;;5038080;28;20234;-45
2022/11/29 02:15:25;;;;;;;5.00;4.50;;;16.40;64.80;17.60;100582.00;;;;5032798;28;20163;-45
2022/11/29 02:18:11;;;;;;;5.43;4.93;;;16.40;64.80;17.60;100579.00;;;;5030209;28;20194;-45
2022/11/29 02:21:19;;;;;;;5.53;4.90;;;16.40;64.80;17.50;100579.00;;;;5030752;28;20628;-45
2022/11/29 02:24:24;;;;;;;5.23;4.73;;;16.40;64.80;17.50;100588.00;;;;5033101;28;20189;-44
2022/11/29 02:27:16;;;;;;;4.90;4.50;;;16.40;64.80;17.50;100590.00;;;;5035664;28;20257;-46
2022/11/29 02:30:07;;;;;;;5.40;4.90;;;16.40;64.90;17.50;100588.00;;;;5030246;28;20678;-45
2022/11/29 02:32:47;;;;;;;5.40;4.90;;;16.40;64.90;17.50;100587.00;;;;5030273;28;20171;-44
2022/11/29 02:35:38;;;;;;;5.80;4.80;;;16.30;64.70;17.40;100586.00;;;;5048272;28;20254;-44
2022/11/29 02:38:40;;;;;;;5.83;5.13;;;16.30;64.70;17.40;100587.00;;;;5030405;28;20666;-44
2022/11/29 02:41:58;;;;;;;6.07;4.70;;;16.30;64.70;17.40;100587.00;;;;5032449;28;20170;-45
2022/11/29 02:44:45;;;;;;;5.97;5.23;;;16.30;64.80;17.40;100580.00;;;;5035204;28;20263;-45
2022/11/29 02:47:33;;;;;;;5.63;4.77;;;16.30;64.90;17.40;100595.00;;;;5032240;28;20362;-44
2022/11/29 02:50:23;;;;;;;5.27;4.70;;;16.30;64.90;17.40;100581.00;;;;5015222;28;20256;-44
2022/11/29 02:53:13;;;;;;;6.43;5.40;;;16.30;64.90;17.30;100598.00;;;;5047904;28;20171;-45
2022/11/29 02:56:09;;;;;;;7.23;5.27;;;16.30;64.90;17.40;100596.00;;;;5030893;28;20207;-45
2022/11/29 02:58:51;;;;;;;5.70;5.10;;;16.30;64.90;17.30;100590.00;;;;5047765;28;20619;-45
2022/11/29 03:01:29;;;;;;;6.13;5.10;;;16.20;64.90;17.30;100597.00;;;;5029896;28;20204;-44
2022/11/29 03:04:40;;;;;;;7.53;4.90;;;16.20;65.00;17.30;100581.00;;;;5014780;28;20229;-46
2022/11/29 03:07:26;;;;;;;5.60;5.00;;;16.20;65.20;17.30;100600.00;;;;5032565;28;20259;-45
2022/11/29 03:10:07;;;;;;;7.27;5.63;;;16.20;65.10;17.40;100603.00;;;;5016058;28;20218;-44
2022/11/29 03:12:40;;;;;;;6.37;5.23;;;16.20;65.10;17.30;100604.00;;;;5029861;28;20159;-46
2022/11/29 03:15:37;;;;;;;5.43;4.93;;;16.20;65.10;17.40;100613.00;;;;5030117;28;20169;-45
2022/11/29 03:18:50;;;;;;;6.20;5.43;;;16.20;65.10;17.40;100612.00;;;;5013224;28;20187;-44
2022/11/29 03:21:35;;;;;;;5.83;5.17;;;16.20;65.20;17.40;100606.00;;;;5029828;28;20171;-45
2022/11/29 03:24:08;;;;;;;6.70;5.50;;;16.20;65.20;17.30;100591.00;;;;5029956;28;20569;-45
2022/11/29 03:27:18;;;;;;;7.03;5.50;;;16.20;65.30;17.40;100623.00;;;;5030062;28;20191;-46
2022/11/29 03:29:56;;;;;;;5.83;5.33;;;16.20;65.30;17.30;100610.00;;;;5045000;28;20215;-46
2022/11/29 03:32:53;;;;;;;7.20;5.90;;;16.20;65.30;17.30;100623.00;;;;5047657;28;20662;-45
2022/11/29 03:35:32;;;;;;;6.63;5.93;;;16.20;65.30;17.30;100632.00;;;;5008583;28;20281;-45
2022/11/29 03:38:22;;;;;;;6.83;5.23;;;16.20;65.30;17.30;100629.00;;;;5030418;28;20183;-46
2022/11/29 03:41:19;;;;;;;6.10;5.50;;;16.10;65.30;17.30;100633.00;;;;5031609;28;20657;-45
2022/11/29 03:44:07;;;;;;;7.03;5.70;;;16.20;65.30;17.30;100627.00;;;;5031937;28;20166;-45
2022/11/29 03:46:55;;;;;;;6.93;5.30;;;16.10;65.30;17.30;100633.00;;;;5030083;28;20260;-45
2022/11/29 03:49:58;;;;;;;8.07;5.07;;;16.10;65.20;17.30;100634.00;;;;5032290;28;20175;-45
2022/11/29 03:52:52;;;;;;;5.60;5.10;;;16.10;65.20;17.30;100627.00;;;;5033017;28;20159;-46
2022/11/29 03:55:48;;;;;;;7.30;5.57;;;16.10;65.20;17.20;100633.00;;;;5029971;28;20300;-44
2022/11/29 03:58:29;;;;;;;6.20;5.50;;;16.10;65.20;17.20;100638.00;;;;5035259;28;20167;-45
2022/11/29 04:01:41;;;;;;;5.63;5.03;;;16.10;65.20;17.20;100637.00;;;;5050964;28;20165;-45
2022/11/29 04:05:03;;;;;;;6.53;5.20;;;16.10;65.20;17.20;100638.00;;;;5050848;28;20191;-46
2022/11/29 04:08:04;;;;;;;6.13;5.07;;;16.00;65.20;17.20;100647.00;;;;5050791;28;20267;-44
2022/11/29 04:10:55;;;;;;;6.27;5.20;;;16.00;65.20;17.20;100646.00;;;;5050466;28;20534;-47
2022/11/29 04:13:58;;;;;;;7.20;5.30;;;16.00;65.10;17.10;100644.00;;;;5035426;28;20593;-45
2022/11/29 04:17:00;;;;;;;5.80;5.20;;;16.00;65.10;17.10;100653.00;;;;5050328;28;20697;-45
2022/11/29 04:19:49;;;;;;;6.60;5.10;;;16.00;65.20;17.10;100658.00;;;;5050464;28;20546;-46
2022/11/29 04:22:39;;;;;;;7.07;5.43;;;16.00;65.10;17.10;100647.00;;;;5032552;28;20277;-44
2022/11/29 04:25:04;;;;;;;5.97;5.37;;;15.90;65.00;17.10;100656.00;;;;5032755;28;20646;-45
2022/11/29 04:27:55;;;;;;;6.70;5.07;;;16.00;65.10;17.10;100660.00;;;;5050490;28;20281;-45
2022/11/29 04:30:24;;;;;;;10.10;5.13;;;15.90;65.30;17.10;100655.00;;;;5032463;28;20193;-46
2022/11/29 04:33:12;;;;;;;10.53;5.30;;;16.00;66.10;17.10;100662.00;;;;5015746;28;20172;-44
2022/11/29 04:36:28;;;;;;;7.73;5.00;;;16.00;65.60;17.10;100664.00;;;;5034130;28;20183;-46
2022/11/29 04:39:21;;;;;;;9.63;5.37;;;16.00;65.20;17.10;100663.00;;;;5037996;28;20177;-44
2022/11/29 04:42:00;;;;;;;9.37;5.20;;;16.00;65.20;17.10;100666.00;;;;5049941;28;20607;-45
2022/11/29 04:45:24;;;;;;;7.20;5.00;;;15.90;65.30;17.00;100673.00;;;;5036219;28;20205;-45
2022/11/29 04:48:27;;;;;;;8.10;5.97;;;15.90;65.60;17.00;100672.00;;;;5016838;28;20393;-46
2022/11/29 04:51:13;;;;;;;7.93;5.73;;;15.90;65.40;17.00;100677.00;;;;5050494;28;20204;-45
2022/11/29 04:53:48;;;;;;;8.70;6.10;;;15.90;65.40;16.90;100673.00;;;;5040523;28;20618;-45
2022/11/29 04:56:39;;;;;;;9.30;6.20;;;15.90;65.40;16.90;100681.00;;;;5050654;28;20295;-45
2022/11/29 04:59:31;;;;;;;10.50;6.87;;;15.80;65.50;16.90;100693.00;;;;5057466;28;20154;-44
2022/11/29 05:02:25;;;;;;;7.67;6.87;;;15.80;65.50;16.80;100688.00;;;;5036289;28;20214;-46
2022/11/29 05:05:16;;;;;;;9.50;6.93;;;15.80;65.50;16.80;100688.00;;;;5051999;28;20150;-45
2022/11/29 05:07:53;;;;;;;10.50;7.10;;;15.80;65.50;16.80;100689.00;;;;5021703;28;20193;-44
2022/11/29 05:10:38;;;;;;;9.80;7.43;;;15.80;65.50;16.80;100702.00;;;;5036989;28;20220;-45
2022/11/29 05:13:33;;;;;;;9.03;7.30;;;15.80;65.60;16.80;100700.00;;;;5051681;28;20194;-46
2022/11/29 05:16:20;;;;;;;11.53;8.13;;;15.80;65.50;16.80;100714.00;;;;5038646;28;20671;-46
2022/11/29 05:19:32;;;;;;;11.90;8.37;;;15.70;65.40;16.80;100704.00;;;;5037617;28;20520;-47
2022/11/29 05:22:22;;;;;;;11.00;8.20;;;15.80;65.50;16.70;100708.00;;;;5050006;28;20189;-44
2022/11/29 05:24:54;;;;;;;10.53;8.23;;;15.70;65.40;16.70;100709.00;;;;5068831;28;20216;-44
2022/11/29 05:28:19;;;;;;;12.13;8.87;;;15.80;65.50;16.80;100709.00;;;;5052391;28;20245;-47
2022/11/29 05:30:47;;;;;;;11.10;8.70;;;15.70;65.30;16.80;100721.00;;;;5005959;28;20228;-46
2022/11/29 05:33:20;;;;;;;12.07;9.20;;;15.70;65.30;16.80;100723.00;;;;5068735;28;20178;-45
2022/11/29 05:35:53;;;;;;;11.17;9.07;;;15.70;65.40;16.80;100716.00;;;;5050995;28;20566;-45
2022/11/29 05:39:29;;;;;;;12.00;8.40;;;15.70;65.30;16.80;100725.00;;;;5069297;28;20166;-47
2022/11/29 05:42:28;;;;;;;17.73;9.70;;;15.70;65.30;16.80;100727.00;;;;4998338;28;20555;-45
2022/11/29 05:45:11;;;;;;;18.93;10.07;;;15.70;65.30;16.80;100720.00;;;;5051840;28;20638;-44
2022/11/29 05:47:53;;;;;;;20.30;9.70;;;15.70;65.40;16.80;100733.00;;;;5036514;28;20193;-45
2022/11/29 05:50:29;;;;;;;19.30;10.70;;;15.70;65.40;16.80;100750.00;;;;5036175;28;20594;-46
2022/11/29 05:53:43;;;;;;;15.97;10.53;;;15.70;65.50;16.80;100744.00;;;;5036098;28;20720;-45
2022/11/29 05:56:33;;;;;;;18.53;10.00;;;15.70;65.50;16.80;100749.00;;;;5039497;28;20304;-45
2022/11/29 05:59:18;;;;;;;15.83;10.37;;;15.70;65.50;16.80;100745.00;;;;5050950;28;20258;-46
2022/11/29 06:02:26;;;;;;;16.43;10.60;;;15.70;65.50;16.80;100752.00;;;;5036328;28;20166;-44
2022/11/29 06:05:16;;;;;;;19.50;10.67;;;15.70;65.60;16.80;100743.00;;;;5052639;28;20693;-45
2022/11/29 06:08:12;;;;;;;18.17;9.77;;;15.70;65.60;16.70;100755.00;;;;5050866;28;20192;-45
2022/11/29 06:10:51;;;;;;;15.53;8.93;;;15.70;65.80;16.80;100762.00;;;;5051113;28;20189;-44
2022/11/29 06:14:08;;;;;;;16.03;9.00;;;15.70;65.80;16.80;100768.00;;;;5052931;28;20154;-45
2022/11/29 06:16:42;;;;;;;15.30;8.50;;;15.70;65.60;16.80;100768.00;;;;5035113;28;20217;-45
2022/11/29 06:19:23;;;;;;;15.70;8.67;;;15.70;65.60;16.80;100776.00;;;;5050054;28;20154;-45
2022/11/29 06:22:20;;;;;;;12.47;8.37;;;15.60;65.60;16.80;100770.00;;;;5068462;28;20177;-47
2022/11/29 06:25:24;;;;;;;15.00;8.30;;;15.70;65.80;16.80;100778.00;;;;5052660;28;20219;-45
2022/11/29 06:28:30;;;;;;;13.67;8.27;;;15.70;65.80;16.80;100771.00;;;;5034114;28;20181;-46
2022/11/29 06:31:14;;;;;;;10.17;7.70;;;15.60;65.80;16.70;100784.00;;;;5053607;28;20193;-46
2022/11/29 06:34:12;;;;;;;13.43;7.53;;;15.60;65.80;16.70;100779.00;;;;5056105;28;20169;-44
2022/11/29 06:36:49;;;;;;;14.40;7.37;;;15.60;65.80;16.70;100793.00;;;;5053343;28;20360;-45
2022/11/29 06:39:15;;;;;;;8.77;7.13;;;15.60;65.80;16.70;100783.00;;;;5032530;28;20670;-44
2022/11/29 06:41:40;;;;;;;10.67;7.30;;;15.60;65.80;16.70;100791.00;;;;5050443;28;20202;-45
2022/11/29 06:44:07;;;;;;;10.63;7.20;;;15.60;65.90;16.70;100795.00;;;;5051131;28;20171;-45
2022/11/29 06:46:56;;;;;;;11.60;7.10;;;15.60;65.90;16.70;100795.00;;;;5049371;28;20825;-44
2022/11/29 06:50:07;;;;;;;12.03;7.47;;;15.60;65.90;16.70;100787.00;;;;5048534;28;20232;-44
2022/11/29 06:52:54;;;;;;;10.30;7.20;;;15.60;66.00;16.70;100800.00;;;;5023301;28;20221;-45
2022/11/29 06:55:45;;;;;;;11.03;7.10;;;15.60;66.10;16.70;100792.00;;;;5030206;28;20807;-44
2022/11/29 06:58:46;;;;;;;8.03;6.73;;;15.60;65.90;16.70;100801.00;;;;5031270;28;20182;-45
2022/11/29 07:01:51;;;;;;;9.20;7.20;;;15.60;66.00;16.70;100801.00;;;;5015420;28;20190;-47
2022/11/29 07:04:29;;;;;;;7.27;6.57;;;15.60;65.90;16.70;100805.00;;;;5027353;28;20277;-46
2022/11/29 07:06:55;;;;;;;8.43;6.77;;;15.60;66.00;16.70;100806.00;;;;5048092;28;20273;-45
2022/11/29 07:09:25;;;;;;;10.63;6.60;;;15.60;65.90;16.70;100814.00;;;;5048629;28;20266;-46
2022/11/29 07:11:51;;;;;;;8.53;6.87;;;15.60;65.90;16.70;100812.00;;;;5030299;28;20200;-46
2022/11/29 07:14:17;;;;;;;7.37;6.57;;;15.60;66.00;16.70;100823.00;;;;5048243;28;20841;-45
2022/11/29 07:17:01;;;;;;;7.03;6.33;;;15.60;65.90;16.70;100823.00;;;;5048298;28;20694;-46
2022/11/29 07:19:59;;;;;;;9.07;6.10;;;15.60;66.00;16.70;100813.00;;;;5048499;28;20250;-45
2022/11/29 07:22:50;;;;;;;7.43;6.70;;;15.60;66.00;16.70;100833.00;;;;5033400;28;20267;-45
2022/11/29 07:26:04;;;;;;;6.80;6.10;;;15.60;66.00;16.70;100843.00;;;;5032992;28;20170;-44
2022/11/29 07:29:27;;;;;;;6.97;6.23;;;15.50;66.00;16.60;100830.00;;;;5048080;28;20163;-46
2022/11/29 07:32:37;;;;;;;7.83;6.17;;;15.50;66.00;16.60;100844.00;;;;4988063;28;20231;-46
2022/11/29 07:35:11;;;;;;;7.03;5.87;;;15.50;66.00;16.60;100835.00;;;;5037374;28;20193;-46
2022/11/29 07:38:11;;;;;;;6.27;5.67;;;15.50;66.00;16.60;100837.00;;;;5034779;28;20182;-45
2022/11/29 07:41:09;;;;;;;6.97;6.20;;;15.50;66.10;16.60;100838.00;;;;5035486;28;20544;-46
2022/11/29 07:43:55;;;;;;;6.70;6.00;;;15.50;66.00;16.60;100843.00;;;;5039307;28;20700;-44
2022/11/29 07:46:21;;;;;;;7.50;6.20;;;15.50;66.10;16.60;100849.00;;;;5036922;28;20547;-46
2022/11/29 07:48:47;;;;;;;7.50;6.27;;;15.50;66.10;16.60;100847.00;;;;5051633;28;20162;-45
2022/11/29 07:51:13;;;;;;;6.93;6.23;;;15.50;66.10;16.60;100849.00;;;;5051141;28;20234;-47
2022/11/29 07:53:41;;;;;;;6.80;6.07;;;15.50;66.10;16.60;100831.00;;;;5051284;28;20595;-44
2022/11/29 07:56:08;;;;;;;6.40;5.80;;;15.50;66.10;16.60;100853.00;;;;5033575;28;20197;-44
2022/11/29 07:58:34;;;;;;;6.90;5.90;;;15.50;66.10;16.60;100860.00;;;;5051788;28;20609;-46
2022/11/29 08:01:01;;;;;;;6.20;5.60;;;15.50;66.10;16.60;100854.00;;;;5051652;28;20249;-44
2022/11/29 08:03:27;;;;;;;6.50;5.67;;;15.50;66.00;16.60;100856.00;;;;5052152;28;20205;-45
2022/11/29 08:05:52;;;;;;;6.60;5.90;;;15.50;66.10;16.60;100864.00;;;;5050980;28;20225;-45
2022/11/29 08:08:18;;;;;;;6.57;5.57;;;15.50;66.20;16.60;100861.00;;;;5051299;28;20171;-45
2022/11/29 08:10:44;;;;;;;6.50;5.80;;;15.50;66.10;16.60;100863.00;;;;5053370;28;20194;-45
2022/11/29 08:13:09;;;;;;;6.40;5.57;;;15.40;66.10;16.60;100869.00;;;;4994943;28;20553;-45
2022/11/29 08:15:35;;;;;;;6.67;5.97;;;15.50;66.10;16.60;100875.00;;;;5070068;28;20216;-45
2022/11/29 08:18:01;;;;;;;5.83;5.33;;;15.40;66.00;16.60;100879.00;;;;5052892;28;20205;-46
2022/11/29 08:20:27;;;;;;;6.57;5.60;;;15.50;66.10;16.60;100874.00;;;;5070537;28;20179;-46
2022/11/29 08:22:57;;;;;;;6.07;5.57;;;15.40;66.00;16.60;100886.00;;;;5070630;28;20664;-45
2022/11/29 08:25:24;;;;;;;5.80;5.20;;;15.40;66.10;16.60;100887.00;;;;5070227;28;20650;-45
2022/11/29 08:27:50;;;;;;;6.27;5.67;;;15.40;66.10;16.60;100895.00;;;;5053061;28;20657;-46
2022/11/29 08:30:21;;;;;;;5.57;5.07;;;15.40;66.10;16.60;100895.00;;;;5050873;28;20213;-45
2022/11/29 08:32:48;;;;;;;7.10;5.30;;;15.40;66.10;16.60;100897.00;;;;5050054;28;20166;-45
2022/11/29 08:35:15;;;;;;;8.97;5.73;;;15.40;66.70;16.60;100900.00;;;;5031824;28;20163;-46
2022/11/29 08:37:41;;;;;;;8.63;5.27;;;15.40;66.70;16.60;100892.00;;;;5049329;28;20551;-45
2022/11/29 08:40:07;;;;;;;9.10;5.07;;;15.40;67.10;16.60;100906.00;;;;5050071;28;20166;-46
2022/11/29 08:42:33;;;;;;;5.80;5.20;;;15.50;66.60;16.70;100895.00;;;;5049773;28;20174;-46
2022/11/29 08:44:59;;;;;;;5.43;4.93;;;15.50;66.70;16.70;100904.00;;;;5033107;28;20154;-46
2022/11/29 08:47:37;;;;;;;5.50;5.00;;;15.60;66.70;16.70;100902.00;;;;5050631;28;20240;-47
2022/11/29 08:50:16;;;;;;;7.97;5.30;;;15.70;66.60;16.70;100909.00;;;;5050457;28;20393;-46
2022/11/29 08:55:32;;;;;;;6.10;4.60;;;15.90;66.50;16.80;100920.00;;;;5050008;28;20181;-44
2022/11/29 08:58:07;;;;;;;6.00;4.73;;;16.10;66.40;16.90;100927.00;;;;5064236;28;20259;-45
2022/11/29 09:00:33;;;;;;;5.73;5.13;;;16.20;66.20;16.90;100911.00;;;;5070685;28;20593;-45
2022/11/29 09:03:58;;;;;;;11.13;5.30;;;16.20;65.90;17.00;100917.00;;;;5069983;28;20178;-44
2022/11/29 09:05:45;;;;;;;6.73;5.20;;;16.30;65.80;17.00;100923.00;;;;5045198;28;20202;-45
2022/11/29 09:08:11;;;;;;;7.83;5.80;;;16.30;66.50;17.00;100931.00;;;;5050597;28;20197;-45
2022/11/29 09:10:38;;;;;;;6.33;5.73;;;16.30;65.70;17.10;100940.00;;;;5050041;28;20198;-46
2022/11/29 09:13:05;;;;;;;7.90;6.10;;;16.30;65.70;17.10;100926.00;;;;4964315;28;20630;-45
2022/11/29 09:15:30;;;;;;;7.47;5.80;;;16.30;65.70;17.10;100919.00;;;;5049998;28;20636;-46
2022/11/29 09:17:56;;;;;;;8.23;5.70;;;16.30;65.60;17.10;100938.00;;;;5049721;28;20171;-45
2022/11/29 09:20:22;;;;;;;6.93;5.67;;;16.30;65.70;17.20;100930.00;;;;5049769;28;20175;-45
2022/11/29 09:22:47;;;;;;;7.93;6.13;;;16.30;65.80;17.20;100945.00;;;;5049371;28;20178;-44
2022/11/29 09:25:13;;;;;;;8.33;6.03;;;16.30;65.70;17.20;100945.00;;;;5049662;28;20831;-45
2022/11/29 09:27:40;;;;;;;7.80;6.27;;;16.30;65.80;17.20;100946.00;;;;5049881;28;20227;-45
2022/11/29 09:30:07;;;;;;;9.53;6.33;;;16.30;65.70;17.20;100946.00;;;;5049971;28;20183;-46
2022/11/29 09:32:35;;;;;;;9.20;6.80;;;16.30;65.80;17.20;100953.00;;;;5066900;28;20177;-45
2022/11/29 09:35:01;;;;;;;8.10;6.87;;;16.30;65.80;17.20;100962.00;;;;5055667;28;20170;-45
2022/11/29 09:37:27;;;;;;;10.43;6.43;;;16.30;66.10;17.20;100957.00;;;;5049672;28;20189;-45
2022/11/29 09:39:53;;;;;;;10.53;6.67;;;16.30;66.60;17.20;100953.00;;;;5049289;28;20194;-46
2022/11/29 09:42:31;;;;;;;9.93;6.20;;;16.30;67.40;17.20;100960.00;;;;5049175;28;20730;-47
2022/11/29 09:45:17;;;;;;;9.10;6.57;;;16.30;67.20;17.20;100957.00;;;;5031750;28;20190;-45
2022/11/29 09:48:01;;;;;;;9.30;6.07;;;16.50;67.30;17.30;100960.00;;;;5034171;28;20409;-45
2022/11/29 09:50:41;;;;;;;7.60;5.93;;;16.60;67.10;17.30;100968.00;;;;5068682;28;20209;-46
2022/11/29 09:53:38;;;;;;;8.60;6.07;;;16.70;66.60;17.40;100977.00;;;;5053254;28;20666;-45
2022/11/29 09:56:17;;;;;;;7.03;5.10;;;16.90;66.10;17.50;100970.00;;;;5069326;28;20835;-48
2022/11/29 09:58:54;;;;;;;5.60;5.00;;;17.00;66.20;17.60;100980.00;;;;5052893;28;20162;-46
2022/11/29 10:01:26;;;;;;;8.83;5.60;;;17.20;65.90;17.70;100985.00;;;;5035406;28;20166;-45
2022/11/29 10:03:53;;;;;;;7.37;5.50;;;17.30;65.40;17.80;100981.00;;;;5049499;28;20637;-46
2022/11/29 10:06:40;;;;;;;7.50;5.10;;;17.40;65.20;17.80;100979.00;;;;5059722;28;20260;-45
2022/11/29 10:09:42;;;;;;;8.83;5.40;;;17.50;65.00;18.00;100974.00;;;;5051340;28;20177;-46
2022/11/29 10:12:20;;;;;;;8.03;5.20;;;17.60;65.30;18.00;100991.00;;;;5017176;28;20207;-47
2022/11/29 10:14:58;;;;;;;8.10;5.13;;;17.60;65.30;18.10;100987.00;;;;5030859;28;20159;-46
2022/11/29 10:17:33;;;;;;;9.47;5.00;;;17.70;65.90;18.10;100978.00;;;;5031036;28;20295;-45
2022/11/29 10:20:19;;;;;;;8.80;5.07;;;17.70;65.70;18.20;100987.00;;;;5030835;28;20166;-46
2022/11/29 10:22:54;;;;;;;9.60;5.27;;;17.80;65.90;18.20;100994.00;;;;5030226;28;20181;-46
2022/11/29 10:25:44;;;;;;;10.43;5.20;;;17.80;65.90;18.30;100981.00;;;;5047465;28;20181;-45
2022/11/29 10:28:15;;;;;;;10.80;4.57;;;17.80;66.00;18.30;100987.00;;;;5034693;28;20175;-45
2022/11/29 10:30:41;;;;;;;8.93;4.77;;;17.80;66.00;18.40;100992.00;;;;5035471;28;20196;-46
2022/11/29 10:33:24;;;;;;;8.60;4.30;;;17.90;66.10;18.40;100989.00;;;;5049990;28;20265;-46
2022/11/29 10:35:54;;;;;;;8.07;4.57;;;17.90;66.00;18.40;100985.00;;;;5053195;28;20261;-45
2022/11/29 10:38:20;;;;;;;9.07;4.70;;;17.90;65.90;18.50;100978.00;;;;5068940;28;20157;-46
2022/11/29 10:40:47;;;;;;;7.87;4.53;;;18.00;65.90;18.50;100977.00;;;;5069215;28;20187;-47
2022/11/29 10:43:13;;;;;;;7.40;4.40;;;18.00;66.20;18.50;100985.00;;;;5034570;28;20176;-47
2022/11/29 10:45:46;;;;;;;7.37;4.60;;;18.00;66.20;18.60;100987.00;;;;5068842;28;20658;-45
2022/11/29 10:48:16;;;;;;;8.07;4.60;;;18.00;66.20;18.60;100990.00;;;;5035569;28;20172;-46
2022/11/29 10:50:43;;;;;;;6.03;4.20;;;18.00;66.10;18.60;100986.00;;;;5051491;28;20270;-46
2022/11/29 10:53:17;;;;;;;9.20;4.47;;;18.00;66.30;18.60;100984.00;;;;5034448;28;20187;-46
2022/11/29 10:56:08;;;;;;;7.83;4.53;;;18.00;66.40;18.60;100985.00;;;;5068662;28;20608;-47
2022/11/29 10:58:34;;;;;;;9.17;4.50;;;18.00;66.60;18.60;100985.00;;;;5042780;28;20548;-46
2022/11/29 11:01:07;;;;;;;7.00;4.20;;;18.00;66.40;18.60;100987.00;;;;5050849;28;20174;-46
2022/11/29 11:03:51;;;;;;;6.83;4.40;;;18.00;66.40;18.70;100984.00;;;;5068661;28;20214;-47
2022/11/29 11:06:22;;;;;;;6.37;4.63;;;18.00;66.20;18.70;100985.00;;;;5022481;28;20189;-46
2022/11/29 11:08:53;;;;;;;7.73;4.50;;;18.00;66.00;18.70;100982.00;;;;5072731;28;20177;-46
2022/11/29 11:11:32;;;;;;;5.30;4.80;;;18.00;65.80;18.70;100982.00;;;;5054685;28;20250;-46
2022/11/29 11:14:00;;;;;;;6.40;4.40;;;18.10;65.80;18.70;100989.00;;;;5037975;28;20621;-45
2022/11/29 11:16:26;;;;;;;6.53;4.40;;;18.00;65.60;18.70;100986.00;;;;5072112;28;20208;-46
2022/11/29 11:18:52;;;;;;;5.00;4.50;;;18.00;65.50;18.80;100991.00;;;;5072348;28;20249;-47
2022/11/29 11:21:20;;;;;;;5.93;4.40;;;18.10;65.60;18.80;100985.00;;;;5054300;28;20173;-46
2022/11/29 11:24:00;;;;;;;8.03;4.70;;;18.00;65.50;18.80;100991.00;;;;5038078;28;20172;-46
2022/11/29 11:26:26;;;;;;;5.07;4.47;;;18.10;65.60;18.80;100989.00;;;;5054899;28;20220;-47
2022/11/29 11:28:58;;;;;;;6.73;4.50;;;18.10;65.40;18.80;100983.00;;;;5055118;28;20166;-46
2022/11/29 11:31:33;;;;;;;5.80;5.00;;;18.10;65.30;18.80;100985.00;;;;5038986;28;20190;-47
2022/11/29 11:34:33;;;;;;;5.63;4.60;;;18.10;65.20;18.80;100985.00;;;;5038702;28;20185;-46
2022/11/29 11:37:14;;;;;;;5.83;5.03;;;18.10;65.20;18.80;100980.00;;;;5072316;28;20202;-46
2022/11/29 11:39:44;;;;;;;5.90;5.03;;;18.20;65.30;18.80;100986.00;;;;5072605;28;20537;-45
2022/11/29 11:42:36;;;;;;;5.47;4.90;;;18.10;65.30;18.80;100999.00;;;;4992280;28;20189;-46
2022/11/29 11:45:11;;;;;;;6.63;4.90;;;18.10;65.30;18.80;100991.00;;;;5044692;28;20181;-45